This is the latest recevied weather packets stored in our database for station/object K4SPB-4. If no packets are shown the sender has not sent any weather packets the latest 10 day(s).
| Time | Temp. | Humidity | Pressure | Rain* | Wind** | Luminosity | Snow |
|---|---|---|---|---|---|---|---|
| 1777694428 | 14.44° C | 44% | 1015.6 hPa | 0 mm | - | - | - |
| 1777693227 | 15° C | 43% | 1015.6 hPa | 0 mm | - | - | - |
| 1777689631 | 14.44° C | 48% | 1016.3 hPa | 0 mm | - | - | - |
| 1777689029 | 15° C | 47% | 1016.5 hPa | 0 mm | - | - | - |
| 1777687824 | 15° C | 45% | 1016.9 hPa | 0 mm | - | - | - |
| 1777685435 | 15.56° C | 42% | 1016 hPa | 0 mm | - | - | - |
| 1777683627 | 16.11° C | 43% | 1015.3 hPa | 0 mm | - | - | - |
| 1777676421 | 17.78° C | 37% | 1013.9 hPa | 0 mm | - | - | - |
| 1777671624 | 17.78° C | 42% | 1013.6 hPa | 0 mm | - | - | - |
| 1777661426 | 17.22° C | 45% | 1016 hPa | 0 mm | - | - | - |
| 1777660824 | 17.22° C | 45% | 1016.3 hPa | 0 mm | - | - | - |
| 1777658434 | 17.22° C | 47% | 1016.4 hPa | 0 mm | - | - | - |
| 1777655445 | 16.67° C | 51% | 1016.4 hPa | 0 mm | - | - | - |
| 1777654821 | 16.67° C | 52% | 1016.4 hPa | 0 mm | - | - | - |
| 1777652453 | 16.11° C | 54% | 1016.8 hPa | 0 mm | - | - | - |
| 1777651227 | 16.11° C | 54% | 1016.8 hPa | 0 mm | - | - | - |
| 1777645226 | 16.11° C | 63% | 1016.3 hPa | 0 mm | - | - | - |
| 1777644624 | 15.56° C | 64% | 1016.4 hPa | 0 mm | - | - | - |
| 1777644022 | 15° C | 67% | 1016.4 hPa | 0 mm | - | - | - |
| 1777641632 | 13.33° C | 73% | 1016.2 hPa | 0 mm | - | - | - |
| 1777640428 | 12.78° C | 74% | 1016.3 hPa | 0 mm | - | - | - |
| 1777639826 | 12.78° C | 75% | 1016.3 hPa | 0 mm | - | - | - |
| 1777638641 | 12.22° C | 75% | 1016 hPa | 0 mm | - | - | - |
| 1777636233 | 11.67° C | 77% | 1015.5 hPa | 0 mm | - | - | - |
| 1777618818 | 12.22° C | 74% | 1014.7 hPa | 0 mm | - | - | - |
* Rain latest hour (hover to see other rain measurements)
** Current wind speed in m/s (hover to see current wind gust speed)